Greifswald — 3FEC8 — position and weather

sailwx.info

Track history (hours):
 
Tides and Currents Weather Stations Pressure Air Temp Water Temp Dewpoint Dewpoint Depression Visibility Wind Speed Wind Dir Waves Ship Positions

Greifswald

Last reported at 2017-Apr-24 02:50 UTC. Time now 2017-Apr-25 20:25 UTC.
Position N 46°12' E 030°58'.

Length 191 m; draft 6.5 m.

Type: Passenger vessel. MMSI: 370492000.

Date/timePositionNaut miles runAvg speedWind from/ knotsBaromVisibWave heightAir tempDewpointWater temp
2017-Apr-24 02:50N 46°12' E 030°58'915.5
2017-Apr-24 02:13N 46°17' E 030°47'6 0.6
2017-Apr-23 15:29N 46°21' E 030°39'5 5.3
2017-Apr-23 14:29N 46°18' E 030°46'  
2017-Apr-19 16:10N 46°16' E 030°52'913.0
2017-Apr-19 15:27N 46°20' E 030°40'1 0.3
2017-Apr-19 12:12N 46°21' E 030°39'0 0.0
2017-Apr-19 11:26N 46°21' E 030°39'0 0.0
2017-Apr-18 06:28N 46°21' E 030°39'0 0.0
2017-Apr-18 05:23N 46°21' E 030°39'0 0.0
2017-Apr-18 04:29N 46°21' E 030°39'0 0.1
2017-Apr-18 03:29N 46°21' E 030°39'  
2017-Apr-14 17:28N 46°17' E 030°45'6 0.4
2017-Apr-14 04:19N 46°21' E 030°39'0 1.5
2017-Apr-14 04:00N 46°20' E 030°39'  
Track history (hours):
 
Tides and Currents Weather Stations Pressure Air Temp Water Temp Dewpoint Dewpoint Depression Visibility Wind Speed Wind Dir Waves Ship Positions

Greifswald

Last reported at 2017-Apr-24 02:50 UTC. Time now 2017-Apr-25 20:25 UTC.
Position N 46°12' E 030°58'.

Length 191 m; draft 6.5 m.

Type: Passenger vessel. MMSI: 370492000.

Date/timePositionNaut miles runAvg speedWind from/ knotsBaromVisibWave heightAir tempDewpointWater temp
2017-Apr-24 02:50N 46°12' E 030°58'915.5
2017-Apr-24 02:13N 46°17' E 030°47'6 0.6
2017-Apr-23 15:29N 46°21' E 030°39'5 5.3
2017-Apr-23 14:29N 46°18' E 030°46'  
2017-Apr-19 16:10N 46°16' E 030°52'913.0
2017-Apr-19 15:27N 46°20' E 030°40'1 0.3
2017-Apr-19 12:12N 46°21' E 030°39'0 0.0
2017-Apr-19 11:26N 46°21' E 030°39'0 0.0
2017-Apr-18 06:28N 46°21' E 030°39'0 0.0
2017-Apr-18 05:23N 46°21' E 030°39'0 0.0
2017-Apr-18 04:29N 46°21' E 030°39'0 0.1
2017-Apr-18 03:29N 46°21' E 030°39'  
2017-Apr-14 17:28N 46°17' E 030°45'6 0.4
2017-Apr-14 04:19N 46°21' E 030°39'0 1.5
2017-Apr-14 04:00N 46°20' E 030°39'  

Dump ship's entire track history